Time;durP1;ratioP1;P1;durP2;ratioP2;P2;SDS_P1;SDS_P2;PMS_P1;PMS_P2;Temp;Humidity;BMP_temperature;BMP_pressure;BME280_temperature;BME280_humidity;BME280_pressure;Samples;Min_cycle;Max_cycle;Signal;HPM_P1;HPM_P2
2022/05/14 00:00:15;;;;;;;4.78;3.53;;;;;;;;;;5051361;28;20017;-37
2022/05/14 00:02:41;;;;;;;5.25;3.63;;;;;;;;;;5051477;28;20475;-37
2022/05/14 00:05:06;;;;;;;8.23;3.85;;;;;;;;;;5051030;28;20045;-38
2022/05/14 00:07:32;;;;;;;4.70;3.28;;;;;;;;;;5051397;28;20029;-37
2022/05/14 00:09:57;;;;;;;4.72;3.15;;;;;;;;;;5051328;28;20058;-37
2022/05/14 00:15:06;;;;;;;4.85;3.17;;;;;;;;;;5051303;28;20115;-37
2022/05/14 00:17:32;;;;;;;4.53;3.15;;;;;;;;;;5051443;28;20116;-37
2022/05/14 00:19:57;;;;;;;6.28;3.53;;;;;;;;;;5051405;28;20029;-37
2022/05/14 00:22:22;;;;;;;5.13;3.00;;;;;;;;;;5051229;28;20479;-37
2022/05/14 00:24:49;;;;;;;5.88;3.03;;;;;;;;;;5051297;28;20128;-37
2022/05/14 00:27:14;;;;;;;8.80;3.25;;;;;;;;;;5051331;28;20063;-37
2022/05/14 00:29:39;;;;;;;6.45;3.25;;;;;;;;;;5051075;28;20040;-37
2022/05/14 00:32:05;;;;;;;4.68;2.88;;;;;;;;;;5051130;28;20032;-37
2022/05/14 00:34:30;;;;;;;5.47;3.15;;;;;;;;;;5051129;28;20029;-38
2022/05/14 00:37:00;;;;;;;6.18;2.90;;;;;;;;;;5051265;28;20036;-38
2022/05/14 00:39:25;;;;;;;6.03;3.03;;;;;;;;;;5050933;28;20112;-37
2022/05/14 00:41:51;;;;;;;4.78;3.08;;;;;;;;;;5033206;28;20151;-38
2022/05/14 00:44:16;;;;;;;4.40;3.38;;;;;;;;;;5050929;28;20065;-37
2022/05/14 00:46:42;;;;;;;6.00;3.15;;;;;;;;;;5033426;28;20044;-38
2022/05/14 00:49:08;;;;;;;5.45;3.00;;;;;;;;;;5050882;28;20479;-38
2022/05/14 00:51:34;;;;;;;4.50;3.45;;;;;;;;;;5051198;28;20108;-37
2022/05/14 00:54:06;;;;;;;4.57;3.55;;;;;;;;;;5050815;28;20123;-37
2022/05/14 00:56:34;;;;;;;5.97;3.30;;;;;;;;;;5051170;28;20033;-37
2022/05/14 00:59:07;;;;;;;7.50;3.53;;;;;;;;;;5050645;28;20116;-37
2022/05/14 01:01:35;;;;;;;5.60;3.40;;;;;;;;;;5032976;28;20090;-37
2022/05/14 01:04:01;;;;;;;5.97;2.85;;;;;;;;;;5032956;28;20082;-37
2022/05/14 01:06:29;;;;;;;3.83;3.03;;;;;;;;;;5032960;28;20796;-37
2022/05/14 01:08:54;;;;;;;5.50;3.30;;;;;;;;;;5032792;28;20052;-37
2022/05/14 01:11:20;;;;;;;19.02;2.92;;;;;;;;;;5050691;28;20649;-37
2022/05/14 01:13:46;;;;;;;4.68;3.40;;;;;;;;;;5032879;28;20029;-37
2022/05/14 01:16:12;;;;;;;5.35;3.42;;;;;;;;;;5032746;28;20132;-37
2022/05/14 01:18:38;;;;;;;8.15;3.40;;;;;;;;;;5032803;28;20159;-37
2022/05/14 01:21:14;;;;;;;5.15;3.70;;;;;;;;;;5049328;28;20036;-37
2022/05/14 01:26:48;;;;;;;4.65;3.22;;;;;;;;;;5036424;28;20041;-38
2022/05/14 01:29:19;;;;;;;7.00;3.63;;;;;;;;;;5036214;28;20403;-37
2022/05/14 01:31:47;;;;;;;5.45;3.38;;;;;;;;;;5054263;28;20029;-37
2022/05/14 01:34:16;;;;;;;6.20;3.70;;;;;;;;;;5036183;28;20051;-37
2022/05/14 01:36:41;;;;;;;7.00;3.70;;;;;;;;;;5036082;28;20479;-37
2022/05/14 01:39:07;;;;;;;6.90;3.53;;;;;;;;;;5036165;28;20044;-37
2022/05/14 01:41:33;;;;;;;5.00;3.03;;;;;;;;;;5054358;28;20029;-37
2022/05/14 01:43:58;;;;;;;3.92;3.22;;;;;;;;;;5035879;28;20383;-37
2022/05/14 01:46:24;;;;;;;9.77;3.97;;;;;;;;;;5036191;28;20072;-37
2022/05/14 01:48:50;;;;;;;4.55;3.50;;;;;;;;;;5035929;28;20017;-36
2022/05/14 01:51:15;;;;;;;8.02;3.83;;;;;;;;;;5053814;28;20492;-38
2022/05/14 01:53:42;;;;;;;5.93;3.15;;;;;;;;;;5036023;28;20537;-37
2022/05/14 01:56:07;;;;;;;4.85;2.83;;;;;;;;;;5035734;28;20132;-37
2022/05/14 01:58:37;;;;;;;7.88;3.50;;;;;;;;;;5035847;28;20025;-37
2022/05/14 02:01:26;;;;;;;4.72;3.28;;;;;;;;;;5036027;28;20103;-37
2022/05/14 02:03:53;;;;;;;6.25;3.63;;;;;;;;;;5052834;28;20049;-38
2022/05/14 02:06:19;;;;;;;4.30;3.15;;;;;;;;;;5035595;28;20029;-37
2022/05/14 02:08:45;;;;;;;9.20;3.65;;;;;;;;;;5053550;28;20051;-37
2022/05/14 02:11:10;;;;;;;4.68;3.83;;;;;;;;;;5035503;28;20029;-37
2022/05/14 02:13:38;;;;;;;6.97;3.97;;;;;;;;;;5035576;28;20052;-37
2022/05/14 02:16:04;;;;;;;5.10;3.88;;;;;;;;;;5053349;28;20048;-38
2022/05/14 02:18:30;;;;;;;6.15;3.28;;;;;;;;;;5035363;28;20078;-39
2022/05/14 02:20:56;;;;;;;4.18;3.28;;;;;;;;;;5035270;28;20379;-37
2022/05/14 02:23:21;;;;;;;8.95;3.83;;;;;;;;;;5035607;28;20044;-37
2022/05/14 02:25:47;;;;;;;5.60;3.55;;;;;;;;;;5035253;28;20139;-38
2022/05/14 02:28:12;;;;;;;5.22;3.42;;;;;;;;;;5035173;28;20063;-37
2022/05/14 02:30:38;;;;;;;8.35;4.47;;;;;;;;;;5035248;28;20032;-37
2022/05/14 02:33:03;;;;;;;8.95;3.20;;;;;;;;;;5052969;28;20033;-37
2022/05/14 02:35:29;;;;;;;4.07;3.60;;;;;;;;;;5052444;28;20060;-37
2022/05/14 02:37:54;;;;;;;5.53;3.35;;;;;;;;;;5052940;28;20108;-38
2022/05/14 02:40:21;;;;;;;4.80;3.05;;;;;;;;;;5035038;28;20043;-37
2022/05/14 02:42:46;;;;;;;8.15;3.70;;;;;;;;;;5034993;28;20025;-37
2022/05/14 02:45:12;;;;;;;8.48;3.55;;;;;;;;;;5034924;28;20032;-42
2022/05/14 02:47:37;;;;;;;6.13;4.30;;;;;;;;;;5052723;28;20067;-37
2022/05/14 02:50:04;;;;;;;4.70;3.85;;;;;;;;;;5034808;28;20029;-38
2022/05/14 02:52:30;;;;;;;8.07;3.45;;;;;;;;;;5034820;28;20036;-38
2022/05/14 02:54:56;;;;;;;5.18;3.17;;;;;;;;;;5034624;28;20033;-37
2022/05/14 02:57:21;;;;;;;6.22;3.40;;;;;;;;;;5034696;28;20033;-37
2022/05/14 02:59:47;;;;;;;5.97;3.63;;;;;;;;;;5052639;28;20078;-38
2022/05/14 03:02:13;;;;;;;5.13;3.63;;;;;;;;;;5052593;28;20391;-38
2022/05/14 03:04:39;;;;;;;4.38;3.53;;;;;;;;;;5034273;28;20057;-37
2022/05/14 03:07:06;;;;;;;9.38;3.60;;;;;;;;;;5034495;28;20108;-37
2022/05/14 03:09:32;;;;;;;4.30;2.95;;;;;;;;;;5034410;28;20041;-37
2022/05/14 03:11:58;;;;;;;7.22;3.00;;;;;;;;;;5052600;28;20389;-37
2022/05/14 03:14:24;;;;;;;8.30;3.47;;;;;;;;;;5052199;28;20017;-38
2022/05/14 03:16:50;;;;;;;8.07;3.10;;;;;;;;;;5052472;28;20069;-38
2022/05/14 03:19:15;;;;;;;4.35;3.35;;;;;;;;;;5034302;28;20094;-37
2022/05/14 03:21:40;;;;;;;3.75;2.97;;;;;;;;;;5034282;28;20079;-37
2022/05/14 03:24:06;;;;;;;6.60;3.53;;;;;;;;;;5052108;28;20013;-38
2022/05/14 03:26:32;;;;;;;5.85;3.00;;;;;;;;;;5052304;28;20045;-37
2022/05/14 03:28:57;;;;;;;6.30;3.42;;;;;;;;;;5034069;28;20013;-38
2022/05/14 03:31:23;;;;;;;5.80;3.05;;;;;;;;;;5050727;28;20029;-37
2022/05/14 03:33:49;;;;;;;5.65;3.33;;;;;;;;;;5051924;28;20021;-37
2022/05/14 03:36:15;;;;;;;8.93;3.40;;;;;;;;;;5051782;28;20068;-38
2022/05/14 03:38:41;;;;;;;6.20;3.45;;;;;;;;;;5051747;28;20091;-38
2022/05/14 03:41:07;;;;;;;5.25;3.35;;;;;;;;;;5052059;28;20044;-37
2022/05/14 03:43:33;;;;;;;5.03;3.30;;;;;;;;;;5033932;28;20021;-37
2022/05/14 03:46:00;;;;;;;13.77;4.15;;;;;;;;;;5050803;28;20400;-38
2022/05/14 03:48:26;;;;;;;5.80;3.47;;;;;;;;;;5051734;28;20028;-37
2022/05/14 03:50:52;;;;;;;4.75;3.28;;;;;;;;;;5033775;28;20025;-37
2022/05/14 03:53:20;;;;;;;3.60;3.13;;;;;;;;;;5051583;28;20370;-37
2022/05/14 03:55:46;;;;;;;6.13;3.92;;;;;;;;;;5033743;28;20123;-37
2022/05/14 03:58:11;;;;;;;15.15;3.47;;;;;;;;;;5033549;28;20460;-37
2022/05/14 04:00:37;;;;;;;5.68;3.03;;;;;;;;;;5033801;28;20056;-37
2022/05/14 04:03:03;;;;;;;4.88;3.05;;;;;;;;;;5033568;28;20460;-37
2022/05/14 04:05:28;;;;;;;11.38;3.40;;;;;;;;;;5033255;28;20090;-38
2022/05/14 04:07:53;;;;;;;5.55;2.80;;;;;;;;;;5051337;28;20067;-37
2022/05/14 04:10:19;;;;;;;3.88;3.50;;;;;;;;;;5051283;28;20032;-38
2022/05/14 04:12:46;;;;;;;9.23;3.80;;;;;;;;;;5033401;28;20017;-37
2022/05/14 04:15:12;;;;;;;6.22;3.60;;;;;;;;;;5033353;28;20021;-37
2022/05/14 04:17:38;;;;;;;6.88;3.95;;;;;;;;;;5033418;28;20066;-37
2022/05/14 04:20:04;;;;;;;6.78;4.20;;;;;;;;;;5049803;28;20033;-37
2022/05/14 04:22:30;;;;;;;5.95;3.55;;;;;;;;;;5033303;28;20017;-37
2022/05/14 04:24:56;;;;;;;4.80;3.30;;;;;;;;;;5033389;28;20087;-37
2022/05/14 04:27:22;;;;;;;4.15;3.15;;;;;;;;;;5033253;28;20028;-37
2022/05/14 04:29:48;;;;;;;5.40;2.72;;;;;;;;;;5033215;28;20032;-37
2022/05/14 04:32:14;;;;;;;4.00;3.33;;;;;;;;;;5033280;28;20025;-37
2022/05/14 04:34:41;;;;;;;4.28;2.83;;;;;;;;;;5033063;28;20040;-38
2022/05/14 04:37:07;;;;;;;6.28;3.00;;;;;;;;;;5051558;28;20024;-37
2022/05/14 04:39:33;;;;;;;11.48;3.53;;;;;;;;;;5033220;28;20029;-37
2022/05/14 04:42:01;;;;;;;7.78;3.50;;;;;;;;;;5032943;28;20532;-38
2022/05/14 04:44:27;;;;;;;7.00;3.83;;;;;;;;;;5049663;28;20033;-38
2022/05/14 04:46:53;;;;;;;4.70;3.22;;;;;;;;;;5033089;28;20025;-36
2022/05/14 04:49:18;;;;;;;6.13;4.03;;;;;;;;;;5033101;28;20025;-37
2022/05/14 04:51:44;;;;;;;6.20;4.13;;;;;;;;;;5033198;28;20025;-37
2022/05/14 04:54:11;;;;;;;5.35;3.38;;;;;;;;;;5032948;28;20029;-37
2022/05/14 04:56:37;;;;;;;5.05;3.20;;;;;;;;;;5050812;28;20021;-38
2022/05/14 04:59:03;;;;;;;4.85;3.40;;;;;;;;;;5035919;28;20029;-37
2022/05/14 05:01:29;;;;;;;8.02;3.95;;;;;;;;;;5036934;28;20025;-37
2022/05/14 05:03:55;;;;;;;5.75;3.72;;;;;;;;;;5036587;28;20060;-37
2022/05/14 05:06:23;;;;;;;5.93;3.95;;;;;;;;;;5053411;28;20056;-37
2022/05/14 05:08:52;;;;;;;9.15;3.65;;;;;;;;;;5020373;28;20078;-37
2022/05/14 05:11:18;;;;;;;4.63;3.13;;;;;;;;;;5054699;28;20031;-36
2022/05/14 05:13:44;;;;;;;3.92;3.25;;;;;;;;;;5054716;28;20674;-37
2022/05/14 05:16:13;;;;;;;5.88;3.47;;;;;;;;;;5054433;28;20048;-37
2022/05/14 05:18:39;;;;;;;6.05;3.50;;;;;;;;;;5054338;28;20472;-37
2022/05/14 05:21:15;;;;;;;6.53;3.05;;;;;;;;;;5054411;28;20048;-37
2022/05/14 05:23:41;;;;;;;7.22;3.60;;;;;;;;;;5054438;28;20037;-37
2022/05/14 05:26:07;;;;;;;5.95;3.65;;;;;;;;;;5054168;28;20028;-37
2022/05/14 05:28:33;;;;;;;4.40;2.67;;;;;;;;;;5036423;28;20108;-37
2022/05/14 05:30:59;;;;;;;4.38;3.55;;;;;;;;;;5054206;28;20013;-36
2022/05/14 05:33:25;;;;;;;4.53;3.47;;;;;;;;;;5054012;28;20120;-37
2022/05/14 05:35:52;;;;;;;4.07;3.28;;;;;;;;;;5054182;28;20017;-37
2022/05/14 05:38:17;;;;;;;6.75;3.25;;;;;;;;;;5054019;28;20025;-37
2022/05/14 05:40:43;;;;;;;3.92;3.28;;;;;;;;;;5054068;28;20483;-37
2022/05/14 05:43:10;;;;;;;4.55;3.03;;;;;;;;;;5054271;28;20037;-37
2022/05/14 05:45:40;;;;;;;6.45;3.50;;;;;;;;;;5053904;28;20044;-37
2022/05/14 05:48:06;;;;;;;5.13;3.67;;;;;;;;;;5036095;28;20438;-37
2022/05/14 05:50:32;;;;;;;3.78;3.22;;;;;;;;;;5036514;28;20055;-37
2022/05/14 05:52:57;;;;;;;4.93;3.72;;;;;;;;;;5053857;28;20032;-37
2022/05/14 05:58:07;;;;;;;4.30;2.92;;;;;;;;;;5053580;28;20021;-37
2022/05/14 06:00:37;;;;;;;9.93;3.55;;;;;;;;;;5053466;28;20112;-37
2022/05/14 06:03:06;;;;;;;3.90;2.92;;;;;;;;;;5036176;28;20060;-37
2022/05/14 06:05:32;;;;;;;7.75;3.45;;;;;;;;;;5053427;28;20071;-37
2022/05/14 06:07:59;;;;;;;4.95;4.03;;;;;;;;;;5053629;28;20033;-37
2022/05/14 06:10:25;;;;;;;3.83;2.80;;;;;;;;;;5052428;28;20029;-37
2022/05/14 06:12:51;;;;;;;3.40;3.10;;;;;;;;;;5053803;28;20052;-37
2022/05/14 06:15:18;;;;;;;3.90;2.92;;;;;;;;;;5051960;28;20025;-38
2022/05/14 06:17:44;;;;;;;4.82;2.72;;;;;;;;;;5053488;28;20025;-37
2022/05/14 06:20:11;;;;;;;5.28;2.55;;;;;;;;;;5053303;28;20031;-36
2022/05/14 06:22:38;;;;;;;2.92;2.45;;;;;;;;;;5053223;28;20495;-37
2022/05/14 06:25:05;;;;;;;5.20;2.40;;;;;;;;;;5053170;28;20170;-37
2022/05/14 06:27:31;;;;;;;30.88;4.43;;;;;;;;;;5052918;28;20388;-37
2022/05/14 06:30:00;;;;;;;3.00;2.53;;;;;;;;;;5053200;28;20020;-37
2022/05/14 06:32:26;;;;;;;5.97;2.45;;;;;;;;;;5053402;28;20032;-37
2022/05/14 06:34:53;;;;;;;3.63;2.80;;;;;;;;;;5053208;28;20033;-37
2022/05/14 06:37:19;;;;;;;3.53;2.65;;;;;;;;;;5052869;28;20029;-37
2022/05/14 06:39:45;;;;;;;9.73;3.78;;;;;;;;;;5035036;28;20234;-37
2022/05/14 06:42:11;;;;;;;3.50;2.40;;;;;;;;;;5053141;28;20017;-37
2022/05/14 06:44:37;;;;;;;6.43;3.38;;;;;;;;;;5052755;28;20798;-37
2022/05/14 06:47:03;;;;;;;7.47;2.83;;;;;;;;;;5052765;28;20028;-37
2022/05/14 06:49:30;;;;;;;3.45;2.42;;;;;;;;;;5052736;28;20040;-37
2022/05/14 06:51:57;;;;;;;5.78;2.65;;;;;;;;;;5052783;28;20434;-37
2022/05/14 06:54:27;;;;;;;2.95;2.58;;;;;;;;;;5052736;28;20540;-37
2022/05/14 06:56:53;;;;;;;2.42;2.17;;;;;;;;;;5052860;28;20033;-37
2022/05/14 06:59:18;;;;;;;6.25;3.22;;;;;;;;;;5034615;28;20029;-37
2022/05/14 07:01:45;;;;;;;3.28;2.55;;;;;;;;;;5052560;28;20116;-37
2022/05/14 07:07:03;;;;;;;2.65;2.17;;;;;;;;;;5052445;28;20032;-37
2022/05/14 07:09:29;;;;;;;4.50;1.90;;;;;;;;;;5052403;28;20546;-37
2022/05/14 07:11:57;;;;;;;2.85;2.30;;;;;;;;;;5052733;28;20039;-37
2022/05/14 07:14:24;;;;;;;3.42;1.85;;;;;;;;;;5052196;28;20024;-37
2022/05/14 07:16:56;;;;;;;2.17;1.85;;;;;;;;;;5052349;28;20033;-37
2022/05/14 07:19:25;;;;;;;2.90;2.28;;;;;;;;;;5034597;28;20391;-37
2022/05/14 07:21:57;;;;;;;4.82;2.47;;;;;;;;;;5051982;28;20505;-37
2022/05/14 07:24:24;;;;;;;2.80;1.92;;;;;;;;;;5052049;28;20033;-37
2022/05/14 07:26:51;;;;;;;5.90;2.42;;;;;;;;;;5051974;28;20025;-37
2022/05/14 07:29:21;;;;;;;2.00;1.77;;;;;;;;;;5051942;28;20033;-37
2022/05/14 07:31:47;;;;;;;4.30;1.60;;;;;;;;;;5051648;28;20033;-37
2022/05/14 07:34:13;;;;;;;2.90;2.65;;;;;;;;;;5051894;28;20483;-37
2022/05/14 07:36:40;;;;;;;2.67;1.90;;;;;;;;;;5034045;28;20028;-37
2022/05/14 07:39:06;;;;;;;1.77;1.30;;;;;;;;;;5033958;28;20037;-37
2022/05/14 07:41:34;;;;;;;2.05;1.58;;;;;;;;;;5052036;28;20530;-37
2022/05/14 07:44:11;;;;;;;2.70;1.73;;;;;;;;;;5051570;28;20082;-37
2022/05/14 07:46:38;;;;;;;2.22;1.80;;;;;;;;;;5033845;28;20434;-37
2022/05/14 07:49:12;;;;;;;1.88;1.75;;;;;;;;;;5033678;28;20138;-36
2022/05/14 07:51:38;;;;;;;2.33;1.77;;;;;;;;;;5051893;28;20139;-37
2022/05/14 07:54:04;;;;;;;3.38;1.83;;;;;;;;;;5051499;28;20597;-37
2022/05/14 07:56:30;;;;;;;2.88;1.98;;;;;;;;;;5051658;28;20145;-37
2022/05/14 07:58:56;;;;;;;2.45;1.33;;;;;;;;;;5051477;28;20231;-37
2022/05/14 08:01:22;;;;;;;1.63;1.50;;;;;;;;;;5051442;28;20028;-37
2022/05/14 08:03:48;;;;;;;2.72;2.30;;;;;;;;;;5051310;28;20020;-37
2022/05/14 08:06:17;;;;;;;1.70;1.42;;;;;;;;;;5051519;28;20033;-37
2022/05/14 08:08:50;;;;;;;1.70;1.48;;;;;;;;;;5051222;28;20033;-37
2022/05/14 08:11:16;;;;;;;1.88;1.23;;;;;;;;;;5033512;28;20036;-37
2022/05/14 08:13:45;;;;;;;2.30;1.60;;;;;;;;;;5051395;28;20013;-37
2022/05/14 08:16:13;;;;;;;2.40;1.75;;;;;;;;;;5051343;28;20037;-37
2022/05/14 08:18:40;;;;;;;3.13;1.52;;;;;;;;;;5033419;28;20600;-37
2022/05/14 08:26:36;;;;;;;2.83;1.55;;;;;;;;;;5051078;28;20064;-37
2022/05/14 08:29:02;;;;;;;11.45;1.98;;;;;;;;;;5051006;28;20021;-37
2022/05/14 08:31:27;;;;;;;1.92;1.33;;;;;;;;;;5051101;28;20025;-37
2022/05/14 08:33:53;;;;;;;1.85;1.60;;;;;;;;;;5057094;28;20025;-37
2022/05/14 08:36:18;;;;;;;7.82;1.67;;;;;;;;;;5057643;28;20052;-37
2022/05/14 08:38:44;;;;;;;1.60;1.50;;;;;;;;;;5057617;28;20021;-37
2022/05/14 08:41:09;;;;;;;3.88;1.85;;;;;;;;;;5057960;28;20053;-37
2022/05/14 08:43:47;;;;;;;2.00;1.80;;;;;;;;;;5057964;28;20024;-37
2022/05/14 08:46:15;;;;;;;2.92;1.27;;;;;;;;;;5057628;28;20070;-37
2022/05/14 08:48:41;;;;;;;2.60;1.80;;;;;;;;;;5057888;28;20028;-37
2022/05/14 08:51:06;;;;;;;1.48;1.30;;;;;;;;;;5057737;28;20426;-37
2022/05/14 08:53:32;;;;;;;2.15;1.88;;;;;;;;;;5057706;28;20017;-37
2022/05/14 08:56:10;;;;;;;4.35;1.70;;;;;;;;;;5057783;28;20029;-37
2022/05/14 08:58:45;;;;;;;4.70;1.60;;;;;;;;;;5057461;28;20029;-37
2022/05/14 09:01:12;;;;;;;4.30;1.40;;;;;;;;;;5057390;28;20395;-37
2022/05/14 09:03:41;;;;;;;2.05;1.40;;;;;;;;;;5057603;28;20048;-37
2022/05/14 09:06:07;;;;;;;3.55;1.98;;;;;;;;;;5057177;28;20044;-37
2022/05/14 09:08:32;;;;;;;2.03;1.63;;;;;;;;;;5057514;28;20075;-37
2022/05/14 09:11:00;;;;;;;2.20;1.60;;;;;;;;;;5057450;28;20033;-37
2022/05/14 09:13:27;;;;;;;2.00;1.17;;;;;;;;;;5057595;28;20056;-37
2022/05/14 09:16:02;;;;;;;2.05;1.55;;;;;;;;;;5057473;28;20468;-37
2022/05/14 09:18:29;;;;;;;2.50;1.42;;;;;;;;;;5057612;28;20033;-36
2022/05/14 09:20:54;;;;;;;1.67;1.42;;;;;;;;;;5057445;28;20083;-37
2022/05/14 09:23:29;;;;;;;3.03;1.70;;;;;;;;;;5057312;28;20028;-37
2022/05/14 09:25:55;;;;;;;2.53;1.40;;;;;;;;;;5057241;28;20037;-37
2022/05/14 09:28:23;;;;;;;1.85;1.30;;;;;;;;;;5039190;28;20017;-37
2022/05/14 09:30:53;;;;;;;1.80;1.30;;;;;;;;;;5057336;28;20464;-37
2022/05/14 09:33:27;;;;;;;1.20;1.10;;;;;;;;;;5057493;28;20102;-37
2022/05/14 09:35:56;;;;;;;2.53;1.70;;;;;;;;;;5057558;28;20021;-37
2022/05/14 09:38:23;;;;;;;2.67;1.73;;;;;;;;;;5057167;28;20033;-37
2022/05/14 09:40:50;;;;;;;2.00;1.30;;;;;;;;;;5055865;28;20390;-37
2022/05/14 09:43:15;;;;;;;1.85;1.25;;;;;;;;;;5057023;28;20016;-37
2022/05/14 09:46:02;;;;;;;1.70;1.52;;;;;;;;;;5053975;28;20033;-37
2022/05/14 09:48:34;;;;;;;1.55;1.40;;;;;;;;;;5053927;28;20033;-37
2022/05/14 09:51:02;;;;;;;1.90;1.25;;;;;;;;;;5053923;28;20078;-37
2022/05/14 09:53:32;;;;;;;7.05;1.73;;;;;;;;;;5053878;28;20071;-37
2022/05/14 09:56:20;;;;;;;3.38;1.17;;;;;;;;;;5053806;28;20048;-37
2022/05/14 09:58:47;;;;;;;2.35;1.58;;;;;;;;;;5016884;28;20056;-37
2022/05/14 10:01:17;;;;;;;2.30;1.48;;;;;;;;;;5053586;28;20029;-37
2022/05/14 10:03:42;;;;;;;2.50;1.40;;;;;;;;;;5053744;28;20033;-37
2022/05/14 10:06:19;;;;;;;1.60;1.50;;;;;;;;;;5053262;28;20076;-37
2022/05/14 10:08:44;;;;;;;4.22;1.40;;;;;;;;;;5053794;28;20032;-37
2022/05/14 10:11:13;;;;;;;4.80;1.30;;;;;;;;;;5053338;28;20024;-37
2022/05/14 10:13:41;;;;;;;2.80;1.83;;;;;;;;;;5053798;28;20032;-37
2022/05/14 10:16:22;;;;;;;2.10;1.70;;;;;;;;;;5035389;28;20021;-37
2022/05/14 10:19:02;;;;;;;2.35;1.60;;;;;;;;;;5053491;28;20051;-37
2022/05/14 10:21:49;;;;;;;2.65;1.83;;;;;;;;;;5053569;28;20043;-37
2022/05/14 10:27:25;;;;;;;3.47;1.65;;;;;;;;;;5032552;28;20099;-37
2022/05/14 10:30:09;;;;;;;2.38;1.88;;;;;;;;;;5053174;28;20013;-37
2022/05/14 10:32:37;;;;;;;8.32;1.60;;;;;;;;;;5053035;28;20025;-37
2022/05/14 10:35:08;;;;;;;2.75;1.92;;;;;;;;;;5052885;28;20036;-37
2022/05/14 10:37:34;;;;;;;2.22;1.52;;;;;;;;;;5035005;28;20037;-37
2022/05/14 10:40:10;;;;;;;1.60;1.50;;;;;;;;;;5035068;28;20423;-37
2022/05/14 10:42:50;;;;;;;2.08;1.50;;;;;;;;;;5052921;28;20078;-37
2022/05/14 10:45:19;;;;;;;4.88;2.05;;;;;;;;;;5052785;28;20040;-37
2022/05/14 10:47:46;;;;;;;3.42;1.75;;;;;;;;;;5052875;28;20025;-37
2022/05/14 10:50:19;;;;;;;3.22;1.38;;;;;;;;;;5052717;28;20079;-37
2022/05/14 10:52:46;;;;;;;1.77;1.42;;;;;;;;;;5052789;28;20025;-37
2022/05/14 10:55:14;;;;;;;1.70;1.40;;;;;;;;;;5052200;28;20021;-37
2022/05/14 10:57:41;;;;;;;2.50;1.48;;;;;;;;;;5052619;28;20037;-37
2022/05/14 11:00:15;;;;;;;4.30;1.75;;;;;;;;;;5034591;28;20013;-37
2022/05/14 11:02:51;;;;;;;2.90;1.90;;;;;;;;;;5052634;28;20094;-37
2022/05/14 11:05:32;;;;;;;1.60;1.50;;;;;;;;;;5052275;28;20049;-37
2022/05/14 11:08:11;;;;;;;2.42;1.58;;;;;;;;;;5052295;28;20052;-37
2022/05/14 11:10:37;;;;;;;5.07;1.65;;;;;;;;;;5052492;28;20029;-37
2022/05/14 11:13:11;;;;;;;3.58;2.40;;;;;;;;;;5052338;28;20071;-37
2022/05/14 11:15:36;;;;;;;2.03;1.80;;;;;;;;;;5052335;28;20368;-37
2022/05/14 11:18:03;;;;;;;2.95;2.05;;;;;;;;;;5052508;28;20028;-37
2022/05/14 11:20:29;;;;;;;1.85;1.30;;;;;;;;;;5052014;28;20040;-37
2022/05/14 11:23:04;;;;;;;2.53;1.73;;;;;;;;;;5052254;28;20021;-37
2022/05/14 11:25:29;;;;;;;2.90;1.73;;;;;;;;;;5052018;28;20052;-37
2022/05/14 11:28:07;;;;;;;2.85;1.60;;;;;;;;;;5052314;28;20025;-37
2022/05/14 11:30:40;;;;;;;1.80;1.45;;;;;;;;;;5052245;28;20033;-37
2022/05/14 11:33:06;;;;;;;;;;;;;;;;;;5052654;28;20032;-37
2022/05/14 11:35:39;;;;;;;2.22;1.42;;;;;;;;;;5052145;28;20326;-37
2022/05/14 11:38:11;;;;;;;3.75;1.73;;;;;;;;;;5052055;28;20067;-37
2022/05/14 11:40:37;;;;;;;4.53;1.88;;;;;;;;;;5051810;28;20025;-37
2022/05/14 11:43:08;;;;;;;1.85;1.60;;;;;;;;;;5051808;28;20066;-37
2022/05/14 11:45:34;;;;;;;2.58;1.73;;;;;;;;;;5051735;28;20091;-37
2022/05/14 11:48:02;;;;;;;2.22;1.42;;;;;;;;;;5051672;28;20119;-37
2022/05/14 11:50:32;;;;;;;1.48;1.25;;;;;;;;;;5051644;28;20091;-37
2022/05/14 11:53:06;;;;;;;1.80;1.40;;;;;;;;;;5051654;28;20017;-38
2022/05/14 11:55:36;;;;;;;2.47;1.83;;;;;;;;;;5051589;28;20028;-37
2022/05/14 11:58:04;;;;;;;1.77;1.48;;;;;;;;;;5051468;28;20112;-37
2022/05/14 12:00:33;;;;;;;1.70;1.30;;;;;;;;;;5033716;28;20033;-37
2022/05/14 12:03:08;;;;;;;2.95;1.58;;;;;;;;;;5051469;28;20574;-37
2022/05/14 12:05:37;;;;;;;2.30;1.55;;;;;;;;;;5051269;28;20377;-37
2022/05/14 12:08:09;;;;;;;2.53;1.77;;;;;;;;;;5032646;28;20029;-37
2022/05/14 12:10:49;;;;;;;7.07;1.30;;;;;;;;;;5051617;28;20725;-37
2022/05/14 12:13:21;;;;;;;1.42;1.33;;;;;;;;;;5016950;28;20375;-37
2022/05/14 12:15:49;;;;;;;4.53;1.65;;;;;;;;;;5051413;28;20044;-37
2022/05/14 12:18:14;;;;;;;2.28;1.85;;;;;;;;;;5051071;28;20017;-37
2022/05/14 12:20:40;;;;;;;4.13;1.45;;;;;;;;;;5033394;28;20518;-37
2022/05/14 12:23:11;;;;;;;5.88;1.50;;;;;;;;;;5051167;28;20017;-37
2022/05/14 12:25:37;;;;;;;2.53;1.38;;;;;;;;;;5050996;28;20046;-37
2022/05/14 12:28:02;;;;;;;2.83;1.45;;;;;;;;;;5051231;28;20024;-37
2022/05/14 12:33:13;;;;;;;4.32;1.90;;;;;;;;;;5051038;28;20033;-37
2022/05/14 12:35:42;;;;;;;2.85;1.80;;;;;;;;;;5033134;28;20028;-37
2022/05/14 12:38:09;;;;;;;3.55;1.50;;;;;;;;;;5050929;28;20029;-37
2022/05/14 12:40:36;;;;;;;3.67;2.13;;;;;;;;;;5051023;28;20024;-37
2022/05/14 12:43:02;;;;;;;1.77;1.67;;;;;;;;;;5050966;28;20079;-37
2022/05/14 12:45:32;;;;;;;2.60;1.38;;;;;;;;;;5050836;28;20029;-37
2022/05/14 12:48:02;;;;;;;2.08;1.83;;;;;;;;;;5050970;28;20025;-37
2022/05/14 12:50:32;;;;;;;1.58;1.33;;;;;;;;;;5050923;28;20021;-37
2022/05/14 12:53:09;;;;;;;1.95;1.80;;;;;;;;;;5051129;28;20120;-37
2022/05/14 12:55:36;;;;;;;1.63;1.48;;;;;;;;;;5050999;28;20067;-37
2022/05/14 12:58:02;;;;;;;3.63;1.55;;;;;;;;;;5050803;28;20062;-37
2022/05/14 13:00:28;;;;;;;3.08;1.85;;;;;;;;;;5050974;28;20024;-37
2022/05/14 13:03:14;;;;;;;1.85;1.20;;;;;;;;;;5050887;28;20456;-37
2022/05/14 13:05:41;;;;;;;1.63;1.42;;;;;;;;;;5050156;28;20132;-37
2022/05/14 13:08:08;;;;;;;3.92;1.75;;;;;;;;;;5049670;28;20397;-37
2022/05/14 13:10:34;;;;;;;1.98;1.38;;;;;;;;;;5051080;28;20025;-38
2022/05/14 13:13:05;;;;;;;2.10;1.67;;;;;;;;;;5050755;28;20094;-37
2022/05/14 13:15:32;;;;;;;2.35;1.40;;;;;;;;;;5032735;28;20029;-37
2022/05/14 13:17:58;;;;;;;3.97;1.25;;;;;;;;;;5050692;28;20486;-37
2022/05/14 13:20:24;;;;;;;2.53;1.42;;;;;;;;;;5054035;28;20029;-37
2022/05/14 13:23:01;;;;;;;4.35;1.50;;;;;;;;;;5054448;28;20024;-37
2022/05/14 13:25:31;;;;;;;3.85;1.73;;;;;;;;;;5053214;28;20090;-37
2022/05/14 13:28:16;;;;;;;2.38;1.65;;;;;;;;;;5036678;28;20029;-37
2022/05/14 13:30:42;;;;;;;2.30;1.70;;;;;;;;;;5054555;28;20021;-37
2022/05/14 13:33:10;;;;;;;2.08;1.65;;;;;;;;;;5054169;28;20112;-37
2022/05/14 13:38:29;;;;;;;1.65;1.42;;;;;;;;;;5054267;28;20029;-37
2022/05/14 13:40:55;;;;;;;2.17;1.55;;;;;;;;;;5054088;28;20040;-37
2022/05/14 13:43:39;;;;;;;6.57;1.90;;;;;;;;;;5054027;28;20383;-37
2022/05/14 13:46:07;;;;;;;2.55;1.67;;;;;;;;;;5052687;28;20051;-37
2022/05/14 13:48:35;;;;;;;5.65;1.77;;;;;;;;;;5054032;28;20024;-37
2022/05/14 13:51:08;;;;;;;3.38;2.25;;;;;;;;;;5053895;28;20029;-37
2022/05/14 13:53:34;;;;;;;4.18;1.95;;;;;;;;;;5036256;28;20036;-37
2022/05/14 13:56:05;;;;;;;7.43;1.85;;;;;;;;;;5053849;28;20060;-37
2022/05/14 13:58:32;;;;;;;6.53;2.28;;;;;;;;;;5036055;28;20021;-37
2022/05/14 14:01:04;;;;;;;5.07;2.28;;;;;;;;;;5053770;28;20044;-37
2022/05/14 14:03:40;;;;;;;2.25;1.45;;;;;;;;;;5053469;28;20115;-38
2022/05/14 14:06:07;;;;;;;6.75;1.98;;;;;;;;;;5053276;28;20134;-37
2022/05/14 14:08:32;;;;;;;5.13;1.45;;;;;;;;;;5053627;28;20124;-37
2022/05/14 14:10:58;;;;;;;3.70;2.25;;;;;;;;;;5053730;28;20442;-37
2022/05/14 14:13:23;;;;;;;2.35;2.08;;;;;;;;;;5053685;28;20376;-38
2022/05/14 14:15:49;;;;;;;3.38;1.42;;;;;;;;;;5053771;28;20391;-41
2022/05/14 14:18:15;;;;;;;2.40;1.60;;;;;;;;;;5053323;28;20024;-37
2022/05/14 14:20:43;;;;;;;4.13;1.23;;;;;;;;;;5053400;28;20484;-37
2022/05/14 14:23:11;;;;;;;5.95;1.40;;;;;;;;;;5053168;28;20025;-38
2022/05/14 14:25:40;;;;;;;4.78;1.63;;;;;;;;;;5053120;28;20075;-37
2022/05/14 14:28:07;;;;;;;2.38;1.48;;;;;;;;;;5053187;28;20025;-37
2022/05/14 14:30:33;;;;;;;5.68;1.70;;;;;;;;;;5034441;28;20052;-37
2022/05/14 14:32:59;;;;;;;4.82;1.92;;;;;;;;;;5053140;28;20059;-37
2022/05/14 14:35:24;;;;;;;3.38;1.55;;;;;;;;;;5053087;28;20029;-37
2022/05/14 14:37:50;;;;;;;5.93;1.77;;;;;;;;;;5053076;28;20375;-38
2022/05/14 14:40:15;;;;;;;3.22;1.25;;;;;;;;;;5052912;28;20471;-37
2022/05/14 14:42:41;;;;;;;1.98;1.30;;;;;;;;;;5052871;28;20422;-37
2022/05/14 14:45:07;;;;;;;2.78;1.27;;;;;;;;;;5052801;28;20047;-37
2022/05/14 14:47:36;;;;;;;3.20;1.20;;;;;;;;;;5052755;28;20021;-37
2022/05/14 14:50:02;;;;;;;1.88;1.20;;;;;;;;;;5052837;28;20040;-37
2022/05/14 14:52:28;;;;;;;4.82;1.10;;;;;;;;;;5034773;28;20040;-37
2022/05/14 14:54:53;;;;;;;2.78;1.17;;;;;;;;;;5052681;28;20069;-37
2022/05/14 14:57:19;;;;;;;3.78;1.15;;;;;;;;;;5052554;28;20013;-38
2022/05/14 14:59:44;;;;;;;6.13;1.80;;;;;;;;;;5052966;28;20059;-37
2022/05/14 15:02:20;;;;;;;2.00;1.10;;;;;;;;;;5052420;28;20511;-37
2022/05/14 15:04:55;;;;;;;5.13;1.20;;;;;;;;;;5034506;28;20053;-37
2022/05/14 15:07:21;;;;;;;6.55;2.47;;;;;;;;;;5034530;28;20040;-37
2022/05/14 15:09:48;;;;;;;2.25;1.23;;;;;;;;;;5052710;28;20430;-37
2022/05/14 15:12:14;;;;;;;4.28;1.58;;;;;;;;;;5034369;28;20033;-37